Oceania — SQOC — position and weather

sailwx.info

Track history (hours):
 
Tides and Currents Weather Stations Pressure Air Temp Water Temp Dewpoint Dewpoint Depression Visibility Wind Speed Wind Dir Waves Ship Positions

Oceanographic research ship Oceania (Poland)

Detailed information on ship capabilities available from University of Delaware's Ocean Information Center and ARCUS's ALIAS (Arctic Logistics Information and Support) project.

Last reported at 2020-Jul-14 06:20 UTC. Time now 2020-Jul-14 12:56 UTC.
Position N 76°44' E 013°45'.

Length 49 m; beam 9 m.

Type: Sailing vessel. MMSI: 261000142.

Date/timePositionNaut miles runAvg speedWind from/ knotsBaromVisibWave heightAir tempDewpointWater temp
2020-Jul-14 06:20N 76°44' E 013°45'4 3.0
2020-Jul-14 04:59N 76°42' E 013°31'21 1.9
2020-Jul-13 17:58N 76°43' E 015°03'4 3.9
2020-Jul-13 17:00N 76°45' E 015°17'25 1.3
2020-Jul-12 22:30N 76°25' E 016°22'96 5.5
2020-Jul-12 05:00N 74°54' E 018°26'18 5.2
2020-Jul-12 01:30N 74°37' E 018°45'12 8.1
2020-Jul-12 00:00N 74°29' E 019°19'7 4.4
2020-Jul-11 22:30N 74°22' E 019°12'0 0.1
2020-Jul-11 20:51N 74°23' E 019°13'7 3.7
2020-Jul-11 19:01N 74°29' E 019°22'3 0.9
2020-Jul-11 15:30N 74°32' E 019°19'5 2.6
2020-Jul-11 13:30N 74°27' E 019°20'2 0.9
2020-Jul-11 11:00N 74°25' E 019°19'4 2.0
2020-Jul-11 09:00N 74°22' E 019°10'0 0.0
2020-Jul-11 08:00N 74°22' E 019°10'0 0.0
2020-Jul-11 03:30N 74°22' E 019°10'0 0.0
2020-Jul-10 15:58N 74°22' E 019°10'4 4.4
2020-Jul-10 15:00N 74°22' E 018°54'12 8.3
2020-Jul-10 13:30N 74°34' E 018°40'11 7.0
2020-Jul-10 12:00N 74°44' E 018°37'5 5.5
2020-Jul-10 11:00N 74°49' E 018°31'13 5.3
2020-Jul-10 08:29N 74°60' E 017°60'  
Track history (hours):
 
Tides and Currents Weather Stations Pressure Air Temp Water Temp Dewpoint Dewpoint Depression Visibility Wind Speed Wind Dir Waves Ship Positions

Oceanographic research ship Oceania (Poland)

Detailed information on ship capabilities available from University of Delaware's Ocean Information Center and ARCUS's ALIAS (Arctic Logistics Information and Support) project.

Last reported at 2020-Jul-14 06:20 UTC. Time now 2020-Jul-14 12:56 UTC.
Position N 76°44' E 013°45'.

Length 49 m; beam 9 m.

Type: Sailing vessel. MMSI: 261000142.

Date/timePositionNaut miles runAvg speedWind from/ knotsBaromVisibWave heightAir tempDewpointWater temp
2020-Jul-14 06:20N 76°44' E 013°45'4 3.0
2020-Jul-14 04:59N 76°42' E 013°31'21 1.9
2020-Jul-13 17:58N 76°43' E 015°03'4 3.9
2020-Jul-13 17:00N 76°45' E 015°17'25 1.3
2020-Jul-12 22:30N 76°25' E 016°22'96 5.5
2020-Jul-12 05:00N 74°54' E 018°26'18 5.2
2020-Jul-12 01:30N 74°37' E 018°45'12 8.1
2020-Jul-12 00:00N 74°29' E 019°19'7 4.4
2020-Jul-11 22:30N 74°22' E 019°12'0 0.1
2020-Jul-11 20:51N 74°23' E 019°13'7 3.7
2020-Jul-11 19:01N 74°29' E 019°22'3 0.9
2020-Jul-11 15:30N 74°32' E 019°19'5 2.6
2020-Jul-11 13:30N 74°27' E 019°20'2 0.9
2020-Jul-11 11:00N 74°25' E 019°19'4 2.0
2020-Jul-11 09:00N 74°22' E 019°10'0 0.0
2020-Jul-11 08:00N 74°22' E 019°10'0 0.0
2020-Jul-11 03:30N 74°22' E 019°10'0 0.0
2020-Jul-10 15:58N 74°22' E 019°10'4 4.4
2020-Jul-10 15:00N 74°22' E 018°54'12 8.3
2020-Jul-10 13:30N 74°34' E 018°40'11 7.0
2020-Jul-10 12:00N 74°44' E 018°37'5 5.5
2020-Jul-10 11:00N 74°49' E 018°31'13 5.3
2020-Jul-10 08:29N 74°60' E 017°60'  

Dump ship's entire track history